Time;durP1;ratioP1;P1;durP2;ratioP2;P2;SDS_P1;SDS_P2;PMS_P1;PMS_P2;Temp;Humidity;BMP_temperature;BMP_pressure;BME280_temperature;BME280_humidity;BME280_pressure;Samples;Min_cycle;Max_cycle;Signal;HPM_P1;HPM_P2
2022/09/10 00:02:04;;;;;;;4.00;1.90;;;;;;;21.43;69.92;99252.44;4493026;31;33473;-75
2022/09/10 00:04:34;;;;;;;4.18;2.03;;;;;;;21.01;72.00;99255.97;4493633;31;34093;-76
2022/09/10 00:07:02;;;;;;;3.10;1.98;;;;;;;21.09;71.85;99257.19;4491823;31;33632;-76
2022/09/10 00:09:31;;;;;;;3.78;1.67;;;;;;;21.08;72.09;99257.28;4483025;32;34368;-76
2022/09/10 00:12:00;;;;;;;3.60;1.90;;;;;;;21.19;71.56;99254.81;4477424;32;33680;-76
2022/09/10 00:14:28;;;;;;;4.47;2.00;;;;;;;21.11;72.39;99257.06;4477138;32;34693;-76
2022/09/10 00:16:57;;;;;;;5.28;2.90;;;;;;;21.12;72.55;99248.25;4477396;32;34189;-75
2022/09/10 00:19:28;;;;;;;4.12;2.62;;;;;;;21.10;72.54;99252.75;4482750;32;34017;-76
2022/09/10 00:21:56;;;;;;;4.35;2.35;;;;;;;21.03;72.93;99244.38;4477249;32;33818;-77
2022/09/10 00:24:25;;;;;;;5.20;2.15;;;;;;;21.03;73.45;99239.09;4481882;31;34651;-75
2022/09/10 00:26:54;;;;;;;4.70;2.35;;;;;;;21.08;73.12;99242.31;4495584;31;34282;-77
2022/09/10 00:29:22;;;;;;;3.67;2.00;;;;;;;21.20;72.65;99239.84;4498632;31;34128;-76
2022/09/10 00:31:51;;;;;;;5.28;2.40;;;;;;;21.39;71.43;99247.41;4492856;31;35025;-76
2022/09/10 00:34:20;;;;;;;3.70;1.87;;;;;;;21.34;71.38;99231.87;4492906;31;33958;-74
2022/09/10 00:36:51;;;;;;;6.28;2.35;;;;;;;21.27;71.57;99231.41;4492832;31;33272;-77
2022/09/10 00:39:20;;;;;;;3.28;1.75;;;;;;;21.10;72.56;99218.47;4493059;31;33807;-75
2022/09/10 00:41:51;;;;;;;5.25;3.05;;;;;;;21.37;71.46;99225.56;4498563;31;34091;-77
2022/09/10 00:44:56;;;;;;;4.80;3.37;;;;;;;21.44;70.84;99229.50;4492753;31;33112;-75
2022/09/10 00:47:28;;;;;;;2.90;1.73;;;;;;;21.39;71.05;99236.84;4493164;31;33018;-76
2022/09/10 00:50:01;;;;;;;3.03;2.00;;;;;;;21.26;71.51;99226.22;4492150;31;33725;-76
2022/09/10 00:52:32;;;;;;;3.42;1.87;;;;;;;21.29;71.21;99232.16;4487556;31;33273;-77
2022/09/10 00:55:08;;;;;;;3.60;1.75;;;;;;;21.24;71.12;99228.16;4482110;32;33767;-77
2022/09/10 00:57:37;;;;;;;3.17;1.70;;;;;;;21.34;70.78;99231.03;4478876;32;33155;-75
2022/09/10 01:00:08;;;;;;;3.75;1.80;;;;;;;21.30;70.89;99225.09;4476776;32;33535;-77
2022/09/10 01:02:37;;;;;;;3.70;1.73;;;;;;;21.18;71.31;99217.97;4476643;32;34790;-74
2022/09/10 01:05:08;;;;;;;2.97;1.77;;;;;;;21.11;71.25;99222.78;4476922;32;35091;-77
2022/09/10 01:07:39;;;;;;;2.35;1.52;;;;;;;21.30;70.23;99215.37;4482791;32;33006;-77
2022/09/10 01:10:11;;;;;;;2.80;1.63;;;;;;;21.21;70.27;99215.97;4476874;32;33922;-76
2022/09/10 01:13:09;;;;;;;14.55;2.50;;;;;;;21.12;70.69;99216.59;4476830;32;34552;-76
2022/09/10 01:15:42;;;;;;;3.95;1.90;;;;;;;21.13;70.52;99213.00;4474726;32;32015;-76
2022/09/10 01:18:20;;;;;;;3.50;1.65;;;;;;;21.11;70.61;99209.59;4476609;32;33311;-75
2022/09/10 01:20:58;;;;;;;3.25;1.45;;;;;;;21.06;70.92;99206.41;4482331;32;34357;-76
2022/09/10 01:23:57;;;;;;;2.70;1.40;;;;;;;21.07;68.61;99205.50;4482133;32;34018;-76
2022/09/10 01:26:37;;;;;;;2.72;1.60;;;;;;;20.87;69.41;99206.75;4476894;32;33607;-75
2022/09/10 01:29:10;;;;;;;4.05;1.80;;;;;;;20.61;70.28;99193.44;4476736;32;33269;-75
2022/09/10 01:31:45;;;;;;;2.60;1.45;;;;;;;20.72;69.16;99191.91;4476668;32;33497;-77
2022/09/10 01:34:19;;;;;;;2.58;1.17;;;;;;;20.66;68.97;99182.59;4476191;32;33680;-77
2022/09/10 01:36:49;;;;;;;3.20;1.95;;;;;;;20.75;67.67;99176.72;4483319;31;34536;-75
2022/09/10 01:39:19;;;;;;;3.12;1.50;;;;;;;20.43;68.81;99176.09;4492140;31;32423;-75
2022/09/10 01:41:48;;;;;;;3.00;1.70;;;;;;;20.39;69.22;99179.84;4492194;31;33800;-76
2022/09/10 01:44:41;;;;;;;4.30;1.52;;;;;;;20.52;68.56;99167.63;4492256;31;33779;-76
2022/09/10 01:47:16;;;;;;;5.00;1.33;;;;;;;20.55;68.28;99167.44;4490702;31;33171;-77
2022/09/10 01:50:01;;;;;;;2.30;1.48;;;;;;;20.51;68.87;99152.72;4497577;31;34337;-74
2022/09/10 01:52:41;;;;;;;3.83;1.60;;;;;;;20.17;70.25;99165.34;4497814;31;33579;-75
2022/09/10 01:55:20;;;;;;;1.37;1.08;;;;;;;20.50;69.18;99181.81;4491851;31;33599;-75
2022/09/10 01:57:54;;;;;;;3.37;1.48;;;;;;;20.53;69.12;99177.19;4492180;31;34496;-75
2022/09/10 02:00:26;;;;;;;2.08;1.17;;;;;;;20.64;68.37;99158.12;4491579;31;32461;-75
2022/09/10 02:02:58;;;;;;;2.37;1.58;;;;;;;20.61;68.97;99146.00;4491972;31;34151;-76
2022/09/10 02:05:29;;;;;;;2.33;1.10;;;;;;;20.26;69.89;99140.25;4497294;31;33817;-75
2022/09/10 02:08:02;;;;;;;1.42;1.15;;;;;;;20.43;69.26;99131.28;4492073;31;33340;-77
2022/09/10 02:10:31;;;;;;;3.47;1.42;;;;;;;20.33;69.55;99136.28;4492022;31;33445;-77
2022/09/10 02:13:00;;;;;;;3.35;1.65;;;;;;;20.32;69.58;99147.78;4491266;31;34417;-75
2022/09/10 02:15:34;;;;;;;3.72;1.55;;;;;;;20.32;69.91;99154.81;4497374;31;34070;-75
2022/09/10 02:18:05;;;;;;;2.25;1.10;;;;;;;20.32;67.95;99150.41;4497250;31;33893;-76
2022/09/10 02:20:34;;;;;;;2.05;1.12;;;;;;;20.40;67.58;99148.16;4491416;31;33396;-76
2022/09/10 02:23:04;;;;;;;3.67;1.80;;;;;;;20.32;68.10;99155.69;4491897;31;34229;-76
2022/09/10 02:25:36;;;;;;;4.20;1.62;;;;;;;20.15;68.78;99162.00;4491184;31;34942;-76
2022/09/10 02:28:05;;;;;;;2.20;1.27;;;;;;;20.23;68.21;99156.25;4497072;31;33942;-77
2022/09/10 02:30:35;;;;;;;2.17;1.55;;;;;;;19.85;69.59;99145.41;4491579;31;33884;-76
2022/09/10 02:33:04;;;;;;;2.30;1.58;;;;;;;19.77;69.23;99135.34;4492277;31;34205;-75
2022/09/10 02:35:33;;;;;;;2.80;1.45;;;;;;;19.42;69.49;99143.50;4491384;31;34512;-76
2022/09/10 02:38:05;;;;;;;2.37;1.20;;;;;;;19.33;69.58;99146.66;4496400;31;33709;-77
2022/09/10 02:40:34;;;;;;;2.22;1.15;;;;;;;19.28;69.85;99141.69;4495591;31;34142;-76
2022/09/10 02:43:03;;;;;;;2.03;1.45;;;;;;;19.20;70.40;99133.38;4491383;31;34625;-77
2022/09/10 02:45:33;;;;;;;3.15;1.50;;;;;;;19.16;70.63;99130.09;4491223;31;34382;-77
2022/09/10 02:48:03;;;;;;;3.58;2.03;;;;;;;19.04;71.58;99136.03;4492518;31;33716;-76
2022/09/10 02:50:33;;;;;;;2.87;1.42;;;;;;;18.90;71.90;99135.97;4498840;31;34055;-77
2022/09/10 02:53:03;;;;;;;1.30;1.00;;;;;;;18.92;71.73;99134.13;4493591;31;33607;-74
2022/09/10 02:55:31;;;;;;;1.60;1.25;;;;;;;18.69;72.25;99133.56;4493500;31;34669;-75
2022/09/10 02:58:00;;;;;;;4.43;1.20;;;;;;;18.65;72.12;99137.31;4493558;31;33366;-75
2022/09/10 03:00:30;;;;;;;6.95;1.30;;;;;;;18.72;71.19;99143.91;4499019;31;33145;-75
2022/09/10 03:02:59;;;;;;;1.30;0.90;;;;;;;18.67;71.58;99137.22;4493120;31;32990;-74
2022/09/10 03:05:32;;;;;;;3.80;1.00;;;;;;;18.64;71.01;99142.66;4493619;31;34600;-74
2022/09/10 03:08:01;;;;;;;1.40;1.02;;;;;;;18.28;72.78;99141.09;4496439;31;35225;-75
2022/09/10 03:10:30;;;;;;;1.80;0.82;;;;;;;18.88;70.00;99145.72;4493514;31;33862;-75
2022/09/10 03:13:00;;;;;;;1.10;0.98;;;;;;;18.89;69.58;99136.91;4489114;31;33267;-77
2022/09/10 03:15:28;;;;;;;0.80;0.80;;;;;;;18.62;70.21;99137.47;4477467;32;33903;-77
2022/09/10 03:17:57;;;;;;;1.27;1.10;;;;;;;18.55;70.18;99138.72;4477819;32;33808;-77
2022/09/10 03:20:26;;;;;;;2.17;1.20;;;;;;;18.66;70.21;99136.38;4477377;32;33726;-76
2022/09/10 03:22:56;;;;;;;2.97;0.82;;;;;;;18.71;70.10;99139.59;4483158;32;34666;-77
2022/09/10 03:25:27;;;;;;;2.78;1.00;;;;;;;18.84;69.92;99144.19;4489670;31;34709;-76
2022/09/10 03:27:58;;;;;;;2.90;1.23;;;;;;;18.82;69.63;99143.44;4492940;31;34486;-75
2022/09/10 03:30:28;;;;;;;0.93;0.87;;;;;;;18.91;69.78;99141.13;4493546;31;32681;-77
2022/09/10 03:32:58;;;;;;;1.50;1.05;;;;;;;19.15;69.32;99144.16;4493389;31;33484;-75
2022/09/10 03:35:27;;;;;;;1.23;0.90;;;;;;;19.14;68.73;99146.87;4498874;31;33661;-77
2022/09/10 03:37:57;;;;;;;1.30;1.10;;;;;;;19.12;69.20;99144.34;4486929;31;33529;-77
2022/09/10 03:40:28;;;;;;;2.50;1.05;;;;;;;19.26;69.07;99135.66;4477289;32;32448;-76
2022/09/10 03:42:57;;;;;;;4.60;1.23;;;;;;;19.29;68.13;99129.38;4477619;32;34837;-77
2022/09/10 03:45:25;;;;;;;1.15;0.77;;;;;;;19.57;66.89;99132.09;4482885;32;34054;-77
2022/09/10 03:47:54;;;;;;;1.37;0.77;;;;;;;19.47;66.86;99132.69;4477507;32;33341;-75
2022/09/10 03:50:23;;;;;;;1.20;0.93;;;;;;;19.40;66.39;99125.19;4477342;32;32787;-75
2022/09/10 03:52:52;;;;;;;1.30;0.88;;;;;;;19.49;65.47;99138.72;4477143;32;33519;-76
2022/09/10 03:55:22;;;;;;;0.88;0.70;;;;;;;19.23;66.77;99132.34;4477222;32;33779;-77
2022/09/10 03:57:50;;;;;;;2.50;1.20;;;;;;;19.21;66.54;99128.94;4482948;32;33996;-76
2022/09/10 04:00:19;;;;;;;1.70;0.85;;;;;;;19.29;66.17;99134.63;4477356;32;32978;-77
2022/09/10 04:02:49;;;;;;;1.23;0.80;;;;;;;19.10;67.12;99125.16;4474409;32;78318;-76
2022/09/10 04:05:18;;;;;;;1.00;0.85;;;;;;;19.28;66.17;99123.28;4477950;32;33358;-78
2022/09/10 04:07:47;;;;;;;1.10;0.70;;;;;;;19.31;65.78;99127.50;4482721;32;33926;-75
2022/09/10 04:10:19;;;;;;;1.10;0.80;;;;;;;19.14;66.30;99137.22;4477019;32;34553;-76
2022/09/10 04:12:52;;;;;;;0.82;0.77;;;;;;;19.01;65.84;99125.69;4476981;32;33648;-78
2022/09/10 04:15:24;;;;;;;1.25;0.70;;;;;;;18.83;66.44;99130.22;4477050;32;34498;-77
2022/09/10 04:17:53;;;;;;;1.62;0.80;;;;;;;18.73;66.62;99142.97;4477259;32;34106;-75
2022/09/10 04:20:24;;;;;;;0.60;0.60;;;;;;;18.82;66.52;99152.16;4483018;32;32840;-77
2022/09/10 04:22:55;;;;;;;0.75;0.75;;;;;;;18.71;66.68;99141.38;4477425;32;33635;-75
2022/09/10 04:25:26;;;;;;;;;;;;;;;18.62;66.90;99147.97;4490090;31;33764;-77
2022/09/10 04:27:56;;;;;;;0.85;0.73;;;;;;;18.59;66.71;99150.78;4482259;31;33914;-77
2022/09/10 04:30:25;;;;;;;1.07;0.60;;;;;;;18.40;67.32;99147.47;4482630;32;32599;-77
2022/09/10 04:32:53;;;;;;;1.33;0.75;;;;;;;18.23;67.51;99153.63;4476901;32;33679;-75
2022/09/10 04:35:22;;;;;;;0.70;0.70;;;;;;;18.23;67.74;99156.25;4477051;32;33790;-77
2022/09/10 04:37:51;;;;;;;0.80;0.80;;;;;;;18.21;68.07;99165.97;4485419;31;33917;-76
2022/09/10 04:40:20;;;;;;;0.60;0.60;;;;;;;18.06;68.58;99155.34;4493982;31;34079;-75
2022/09/10 04:42:50;;;;;;;2.83;0.88;;;;;;;17.91;69.44;99151.75;4498100;31;33850;-75
2022/09/10 04:45:20;;;;;;;2.92;1.25;;;;;;;17.98;69.08;99143.56;4492490;31;33839;-76
2022/09/10 04:47:51;;;;;;;0.70;0.70;;;;;;;18.00;68.97;99146.94;4493062;31;33756;-74
2022/09/10 04:50:20;;;;;;;1.23;0.62;;;;;;;18.07;68.85;99148.31;4492542;31;33821;-77
2022/09/10 04:53:04;;;;;;;0.65;0.65;;;;;;;18.24;68.52;99156.16;4498529;31;33606;-77
2022/09/10 04:55:33;;;;;;;0.62;0.62;;;;;;;18.12;68.95;99146.28;4494994;31;33571;-78
2022/09/10 04:58:02;;;;;;;0.75;0.70;;;;;;;18.12;68.29;99141.03;4491292;31;33106;-77
2022/09/10 05:00:32;;;;;;;0.65;0.65;;;;;;;18.30;67.28;99139.22;4492697;31;34255;-77
2022/09/10 05:03:03;;;;;;;0.57;0.57;;;;;;;18.25;67.84;99141.25;4492350;31;33915;-75
2022/09/10 05:05:32;;;;;;;0.63;0.63;;;;;;;18.49;66.36;99145.19;4497776;31;33294;-76
2022/09/10 05:08:06;;;;;;;;;;;;;;;18.34;66.94;99146.84;4492636;31;34103;-75
2022/09/10 05:10:37;;;;;;;1.55;0.73;;;;;;;18.32;67.18;99145.25;4491948;31;33194;-76
2022/09/10 05:13:06;;;;;;;0.60;0.60;;;;;;;18.52;65.55;99152.88;4492650;31;34176;-77
2022/09/10 05:15:40;;;;;;;0.93;0.82;;;;;;;18.61;65.52;99151.53;4496449;31;32814;-76
2022/09/10 05:18:09;;;;;;;1.30;0.70;;;;;;;18.57;66.10;99152.63;4492973;31;33620;-77
2022/09/10 05:20:38;;;;;;;0.77;0.77;;;;;;;18.91;64.46;99156.06;4488483;31;34146;-75
2022/09/10 05:23:07;;;;;;;0.90;0.75;;;;;;;18.88;64.79;99159.72;4492404;31;33608;-77
2022/09/10 05:25:36;;;;;;;0.73;0.65;;;;;;;18.90;64.67;99163.09;4492632;31;34099;-75
2022/09/10 05:28:06;;;;;;;0.65;0.60;;;;;;;19.10;63.78;99167.22;4498226;31;33545;-75
2022/09/10 05:30:35;;;;;;;0.60;0.60;;;;;;;18.73;65.37;99166.62;4491803;31;33214;-77
2022/09/10 05:33:05;;;;;;;1.27;0.75;;;;;;;19.18;63.51;99154.50;4491753;31;34453;-76
2022/09/10 05:35:34;;;;;;;2.03;0.80;;;;;;;19.01;64.52;99159.03;4491870;31;34090;-77
2022/09/10 05:38:03;;;;;;;0.93;0.70;;;;;;;19.07;64.41;99162.16;4497699;31;33764;-75
2022/09/10 05:40:32;;;;;;;0.77;0.68;;;;;;;19.47;63.04;99157.22;4491917;31;33144;-75
2022/09/10 05:43:02;;;;;;;0.90;0.77;;;;;;;19.15;63.83;99162.56;4492018;31;33477;-76
2022/09/10 05:45:32;;;;;;;1.15;0.60;;;;;;;18.98;65.04;99165.28;4491855;31;34802;-78
2022/09/10 05:48:02;;;;;;;1.05;0.98;;;;;;;19.38;63.23;99166.50;4491976;31;33974;-75
2022/09/10 05:50:32;;;;;;;0.80;0.60;;;;;;;19.28;63.56;99172.38;4497608;31;33473;-76
2022/09/10 05:53:01;;;;;;;0.60;0.60;;;;;;;19.24;63.89;99171.72;4489948;31;33513;-75
2022/09/10 05:55:31;;;;;;;0.93;0.73;;;;;;;19.35;64.05;99168.44;4475848;32;34090;-76
2022/09/10 05:58:01;;;;;;;1.40;0.75;;;;;;;19.27;64.00;99171.53;4475652;32;33194;-75
2022/09/10 06:00:30;;;;;;;3.28;1.20;;;;;;;19.45;63.21;99171.41;4482005;32;35432;-78
2022/09/10 06:03:01;;;;;;;0.60;0.60;;;;;;;19.07;65.04;99172.66;4475988;32;33467;-75
2022/09/10 06:05:32;;;;;;;0.62;0.60;;;;;;;19.19;64.63;99171.97;4476066;32;34659;-76
2022/09/10 06:08:02;;;;;;;3.17;0.62;;;;;;;19.25;64.94;99169.94;4476227;32;33277;-77
2022/09/10 06:10:37;;;;;;;0.80;0.80;;;;;;;19.46;64.61;99168.69;4475757;32;34052;-76
2022/09/10 06:13:06;;;;;;;0.60;0.60;;;;;;;19.20;65.23;99170.19;4483625;31;34282;-77
2022/09/10 06:15:36;;;;;;;1.02;0.60;;;;;;;19.25;65.54;99162.03;4475874;32;34469;-76
2022/09/10 06:18:05;;;;;;;0.60;0.60;;;;;;;19.56;65.02;99163.75;4475858;32;34947;-78
2022/09/10 06:20:35;;;;;;;0.98;0.73;;;;;;;19.57;64.10;99168.06;4476222;32;33132;-78
2022/09/10 06:23:05;;;;;;;1.70;0.90;;;;;;;19.37;65.14;99164.78;4485693;31;34490;-78
2022/09/10 06:25:34;;;;;;;5.53;1.10;;;;;;;19.49;64.88;99162.41;4494955;31;33736;-77
2022/09/10 06:28:03;;;;;;;1.15;0.85;;;;;;;19.53;64.92;99163.94;4485851;31;34278;-78
2022/09/10 06:30:32;;;;;;;0.82;0.60;;;;;;;19.61;64.28;99162.53;4488363;31;34050;-77
2022/09/10 06:33:01;;;;;;;0.80;0.70;;;;;;;19.62;65.02;99158.97;4483772;31;32485;-77
2022/09/10 06:35:32;;;;;;;0.43;0.43;;;;;;;19.39;65.21;99165.56;4489235;31;34078;-76
2022/09/10 06:38:02;;;;;;;1.48;0.93;;;;;;;19.33;64.64;99168.56;4484208;31;33676;-75
2022/09/10 06:40:32;;;;;;;;;;;;;;;19.29;64.79;99171.44;4485356;31;34099;-76
2022/09/10 06:43:01;;;;;;;2.25;0.90;;;;;;;19.34;64.46;99174.66;4480416;31;34793;-78
2022/09/10 06:45:32;;;;;;;1.05;0.93;;;;;;;19.14;64.99;99178.44;4489954;31;33534;-76
2022/09/10 06:48:02;;;;;;;3.55;0.70;;;;;;;19.14;64.77;99168.75;4484709;31;34495;-75
2022/09/10 06:50:52;;;;;;;1.77;1.48;;;;;;;19.13;64.47;99166.22;4484758;31;33142;-75
2022/09/10 06:53:25;;;;;;;1.50;0.85;;;;;;;19.05;65.46;99176.31;4485122;31;33525;-77
2022/09/10 06:55:55;;;;;;;1.65;0.68;;;;;;;18.89;66.76;99177.16;4484259;31;33583;-76
2022/09/10 06:58:24;;;;;;;0.50;0.50;;;;;;;19.13;66.23;99179.34;4482163;32;32856;-77
2022/09/10 07:00:54;;;;;;;0.60;0.60;;;;;;;19.03;67.10;99186.06;4483696;31;33130;-76
2022/09/10 07:03:24;;;;;;;1.52;1.00;;;;;;;19.22;66.33;99191.16;4484402;31;33368;-76
2022/09/10 07:05:54;;;;;;;0.95;0.68;;;;;;;19.18;66.62;99191.31;4489663;31;33525;-75
2022/09/10 07:08:26;;;;;;;1.50;1.02;;;;;;;19.01;68.88;99193.19;4492623;31;33054;-75
2022/09/10 07:10:59;;;;;;;1.77;0.80;;;;;;;19.24;66.86;99197.16;4496073;31;33293;-76
2022/09/10 07:13:28;;;;;;;1.40;0.85;;;;;;;19.30;67.71;99202.06;4490804;31;33284;-78
2022/09/10 07:15:57;;;;;;;0.60;0.60;;;;;;;19.47;67.41;99206.38;4492775;31;34283;-75
2022/09/10 07:18:27;;;;;;;1.10;0.60;;;;;;;19.39;68.08;99212.06;4492598;31;33396;-76
2022/09/10 07:21:06;;;;;;;1.48;0.82;;;;;;;19.40;68.01;99216.37;4498017;31;33360;-78
2022/09/10 07:23:37;;;;;;;0.95;0.85;;;;;;;19.31;69.04;99215.13;4497655;31;33444;-76
2022/09/10 07:26:10;;;;;;;0.65;0.65;;;;;;;19.21;69.12;99210.47;4480587;31;34665;-76
2022/09/10 07:28:41;;;;;;;0.90;0.90;;;;;;;19.28;68.89;99211.81;4476499;31;33870;-75
2022/09/10 07:31:15;;;;;;;4.15;0.98;;;;;;;18.96;70.82;99212.69;4477303;31;33799;-76
2022/09/10 07:33:45;;;;;;;1.20;0.90;;;;;;;18.95;71.72;99208.37;4495701;31;33534;-76
2022/09/10 07:36:15;;;;;;;1.50;0.80;;;;;;;19.02;71.66;99210.69;4484439;31;33415;-76
2022/09/10 07:38:46;;;;;;;1.80;0.95;;;;;;;19.02;71.91;99219.41;4482179;31;34025;-76
2022/09/10 07:41:15;;;;;;;3.00;1.00;;;;;;;19.21;72.28;99221.00;4484087;31;33269;-75
2022/09/10 07:43:45;;;;;;;2.50;1.12;;;;;;;19.21;71.07;99223.63;4476812;32;33861;-75
2022/09/10 07:46:20;;;;;;;1.83;0.80;;;;;;;19.16;71.83;99222.13;4482105;32;34297;-76
2022/09/10 07:48:53;;;;;;;0.88;0.70;;;;;;;19.20;71.64;99230.66;4476783;32;33503;-76
2022/09/10 07:51:25;;;;;;;1.20;0.90;;;;;;;19.36;70.72;99236.75;4483810;31;34152;-76
2022/09/10 07:53:57;;;;;;;1.08;0.82;;;;;;;19.21;71.97;99229.75;4484067;31;34302;-76
2022/09/10 07:56:31;;;;;;;1.10;1.00;;;;;;;19.37;72.04;99230.56;4477965;32;34595;-77
2022/09/10 07:59:01;;;;;;;1.02;0.90;;;;;;;19.54;71.43;99229.59;4481537;32;33591;-74
2022/09/10 08:01:31;;;;;;;1.33;0.98;;;;;;;19.73;71.52;99234.69;4476524;32;33191;-75
2022/09/10 08:04:00;;;;;;;2.25;1.00;;;;;;;19.74;69.67;99235.53;4478328;31;33903;-74
2022/09/10 08:06:31;;;;;;;1.80;1.00;;;;;;;19.57;70.92;99234.69;4490350;31;34092;-74
2022/09/10 08:09:04;;;;;;;1.25;0.75;;;;;;;19.94;69.91;99234.38;4482624;31;33675;-77
2022/09/10 08:11:34;;;;;;;1.35;0.88;;;;;;;19.96;69.51;99240.41;4476390;31;33772;-77
2022/09/10 08:14:03;;;;;;;1.80;0.80;;;;;;;20.19;67.19;99241.66;4476289;31;33931;-75
2022/09/10 08:16:32;;;;;;;1.15;0.73;;;;;;;20.26;67.56;99235.06;4476158;31;34797;-77
2022/09/10 08:19:01;;;;;;;0.85;0.85;;;;;;;20.07;66.57;99250.28;4475924;31;34529;-74
2022/09/10 08:21:31;;;;;;;1.10;0.70;;;;;;;20.06;67.78;99244.19;4482091;31;33567;-77
2022/09/10 08:24:02;;;;;;;0.90;0.73;;;;;;;20.09;67.27;99236.09;4478079;31;33967;-77
2022/09/10 08:26:32;;;;;;;0.75;0.60;;;;;;;20.22;64.81;99236.19;4483355;31;34524;-75
2022/09/10 08:29:02;;;;;;;1.23;0.80;;;;;;;20.23;65.34;99243.16;4478241;31;34104;-77
2022/09/10 08:31:32;;;;;;;1.17;0.90;;;;;;;20.17;65.59;99239.09;4488178;31;33826;-75
2022/09/10 08:34:01;;;;;;;1.58;0.73;;;;;;;20.47;65.56;99235.56;4475792;31;35304;-77
2022/09/10 08:36:29;;;;;;;1.77;1.00;;;;;;;20.54;63.12;99241.28;4476492;31;33886;-78
2022/09/10 08:39:01;;;;;;;1.15;0.98;;;;;;;20.62;63.41;99239.06;4481662;31;32565;-75
2022/09/10 08:41:47;;;;;;;0.82;0.77;;;;;;;20.65;63.00;99246.78;4479995;31;34071;-75
2022/09/10 08:44:27;;;;;;;1.43;0.70;;;;;;;20.50;61.88;99251.19;4487169;31;33609;-75
2022/09/10 08:47:03;;;;;;;0.63;0.60;;;;;;;20.47;62.34;99246.09;4481172;31;33739;-75
2022/09/10 08:49:37;;;;;;;1.05;0.50;;;;;;;20.38;60.88;99239.59;4476643;32;33750;-78
2022/09/10 08:52:14;;;;;;;0.93;0.60;;;;;;;20.48;61.37;99245.16;4476028;32;33467;-75
2022/09/10 08:54:53;;;;;;;0.60;0.60;;;;;;;20.55;62.19;99243.00;4479367;31;33415;-76
2022/09/10 08:57:27;;;;;;;0.65;0.60;;;;;;;20.42;60.76;99243.75;4487355;31;34765;-75
2022/09/10 08:59:56;;;;;;;0.50;0.50;;;;;;;20.38;60.97;99246.66;4478864;31;34081;-76
2022/09/10 09:02:33;;;;;;;0.93;0.50;;;;;;;20.38;59.99;99251.94;4476263;31;32577;-76
2022/09/10 09:05:22;;;;;;;0.50;0.50;;;;;;;20.22;58.87;99254.63;4488429;31;33080;-75
2022/09/10 09:07:51;;;;;;;0.68;0.45;;;;;;;20.43;58.38;99257.75;4476714;32;32754;-76
2022/09/10 09:10:29;;;;;;;0.60;0.60;;;;;;;20.52;58.96;99259.00;4484525;31;34721;-75
2022/09/10 09:13:26;;;;;;;0.90;0.60;;;;;;;20.63;58.58;99254.81;4481826;32;33338;-78
2022/09/10 09:16:04;;;;;;;0.40;0.40;;;;;;;20.61;59.08;99245.28;4476217;32;35156;-75
2022/09/10 09:18:41;;;;;;;0.65;0.65;;;;;;;20.74;58.25;99254.13;4476555;31;33543;-76
2022/09/10 09:21:16;;;;;;;0.75;0.50;;;;;;;20.81;58.38;99247.53;4493166;31;34246;-77
2022/09/10 09:23:51;;;;;;;0.50;0.50;;;;;;;20.84;58.43;99251.75;4492062;31;33165;-78
2022/09/10 09:26:42;;;;;;;0.82;0.52;;;;;;;21.00;58.40;99246.37;4492385;31;33854;-78
2022/09/10 09:29:14;;;;;;;0.65;0.45;;;;;;;21.13;57.27;99247.28;4497841;31;34639;-75
2022/09/10 09:32:03;;;;;;;6.87;0.70;;;;;;;21.26;57.09;99249.97;4492512;31;34603;-76
2022/09/10 09:34:36;;;;;;;0.73;0.50;;;;;;;21.16;56.90;99248.88;4484489;31;33428;-77
2022/09/10 09:37:13;;;;;;;0.43;0.43;;;;;;;21.34;56.17;99246.87;4492148;31;33567;-78
2022/09/10 09:39:47;;;;;;;0.60;0.40;;;;;;;21.44;55.14;99248.00;4488789;31;34133;-78
2022/09/10 09:42:23;;;;;;;0.35;0.35;;;;;;;21.49;54.49;99246.72;4490234;31;33842;-76
2022/09/10 09:44:56;;;;;;;0.40;0.40;;;;;;;21.67;52.44;99243.81;4484240;31;33167;-78
2022/09/10 09:47:26;;;;;;;0.43;0.40;;;;;;;21.80;53.87;99234.16;4482918;31;33671;-76
2022/09/10 09:49:58;;;;;;;0.82;0.37;;;;;;;22.13;51.59;99233.69;4482406;31;33714;-76
2022/09/10 09:52:30;;;;;;;2.85;0.88;;;;;;;22.12;52.28;99229.31;4477833;31;34416;-76
2022/09/10 09:55:01;;;;;;;0.30;0.30;;;;;;;22.27;50.85;99232.75;4480961;31;32726;-77
2022/09/10 09:57:46;;;;;;;0.35;0.35;;;;;;;22.36;51.65;99229.47;4492865;31;33827;-77
2022/09/10 10:00:35;;;;;;;0.35;0.30;;;;;;;22.68;51.09;99241.38;4493133;31;34647;-77
2022/09/10 10:03:15;;;;;;;1.65;0.57;;;;;;;22.85;49.20;99229.63;4481006;31;33389;-78
2022/09/10 10:05:47;;;;;;;0.45;0.45;;;;;;;23.02;49.90;99226.63;4477531;31;32764;-76
2022/09/10 10:08:27;;;;;;;0.57;0.43;;;;;;;23.10;50.17;99224.31;4485225;31;33138;-78
2022/09/10 10:10:56;;;;;;;0.80;0.43;;;;;;;23.52;47.99;99215.97;4490300;31;33722;-76
2022/09/10 10:13:35;;;;;;;0.30;0.30;;;;;;;23.23;47.85;99215.47;4483418;31;33915;-75
2022/09/10 10:16:14;;;;;;;0.32;0.30;;;;;;;23.21;47.67;99216.41;4477844;31;33518;-78
2022/09/10 10:18:44;;;;;;;0.50;0.50;;;;;;;23.08;46.49;99218.28;4477847;32;34133;-76
2022/09/10 10:21:18;;;;;;;0.95;0.40;;;;;;;23.01;48.14;99214.38;4478029;32;34066;-77
2022/09/10 10:23:48;;;;;;;0.45;0.40;;;;;;;23.05;48.14;99214.97;4483618;32;33922;-79
2022/09/10 10:26:32;;;;;;;0.30;0.30;;;;;;;22.86;47.09;99210.13;4478990;32;33244;-78
2022/09/10 10:29:05;;;;;;;1.33;0.90;;;;;;;22.85;46.75;99216.41;4476537;31;34427;-77
2022/09/10 10:31:39;;;;;;;0.40;0.40;;;;;;;22.81;47.50;99197.28;4478039;32;33801;-77
2022/09/10 10:34:28;;;;;;;0.40;0.40;;;;;;;23.02;47.03;99209.94;4477914;31;33491;-78
2022/09/10 10:37:06;;;;;;;0.30;0.30;;;;;;;22.98;48.62;99212.81;4491179;31;33830;-78
2022/09/10 10:39:48;;;;;;;0.80;0.40;;;;;;;23.34;45.57;99196.97;4494650;31;34491;-77
2022/09/10 10:42:22;;;;;;;0.40;0.40;;;;;;;23.63;45.46;99193.03;4493859;31;33806;-76
2022/09/10 10:45:02;;;;;;;0.30;0.30;;;;;;;23.53;46.41;99201.75;4493820;31;33928;-77
2022/09/10 10:47:38;;;;;;;0.28;0.28;;;;;;;23.90;45.71;99194.56;4492112;31;33553;-76
2022/09/10 10:50:18;;;;;;;0.20;0.20;;;;;;;23.50;43.63;99199.34;4494132;31;34451;-78
2022/09/10 10:52:58;;;;;;;0.20;0.20;;;;;;;23.55;44.35;99195.38;4499127;31;34621;-76
2022/09/10 10:55:32;;;;;;;0.30;0.30;;;;;;;23.59;43.86;99203.97;4493920;31;33319;-77
2022/09/10 10:58:15;;;;;;;0.20;0.20;;;;;;;23.90;43.80;99205.16;4493814;31;33742;-78
2022/09/10 11:00:48;;;;;;;0.20;0.20;;;;;;;23.76;44.04;99194.78;4493073;31;33947;-77
2022/09/10 11:03:23;;;;;;;1.35;0.32;;;;;;;23.99;43.46;99193.87;4493174;31;34118;-76
2022/09/10 11:05:54;;;;;;;0.60;0.40;;;;;;;24.03;41.16;99192.66;4499223;31;33778;-78
2022/09/10 11:08:27;;;;;;;0.25;0.25;;;;;;;24.00;42.42;99194.72;4493046;31;33264;-75
2022/09/10 11:11:00;;;;;;;0.60;0.22;;;;;;;24.05;41.97;99182.78;4493435;31;34340;-76
2022/09/10 11:13:31;;;;;;;0.20;0.20;;;;;;;24.44;42.00;99195.72;4494304;31;33577;-76
2022/09/10 11:16:04;;;;;;;0.85;0.22;;;;;;;24.13;41.25;99206.03;4493409;31;33607;-78
2022/09/10 11:18:37;;;;;;;0.15;0.15;;;;;;;24.39;39.91;99201.37;4485011;31;33146;-76
2022/09/10 11:21:12;;;;;;;0.52;0.20;;;;;;;24.42;40.52;99201.13;4479253;31;34313;-78
2022/09/10 11:23:45;;;;;;;0.20;0.20;;;;;;;24.39;40.81;99205.84;4492559;31;33755;-78
2022/09/10 11:26:19;;;;;;;0.15;0.15;;;;;;;24.48;39.87;99200.69;4493254;31;33549;-76
2022/09/10 11:28:56;;;;;;;0.13;0.13;;;;;;;24.38;39.57;99197.03;4493410;31;33669;-76
2022/09/10 11:31:30;;;;;;;0.22;0.20;;;;;;;24.36;40.88;99211.38;4496609;31;33523;-78
2022/09/10 11:34:03;;;;;;;0.40;0.20;;;;;;;24.11;41.18;99200.00;4477565;31;34524;-77
2022/09/10 11:36:40;;;;;;;0.65;0.30;;;;;;;23.88;40.71;99207.09;4482024;31;33639;-78
2022/09/10 11:39:15;;;;;;;0.10;0.10;;;;;;;23.85;41.38;99196.72;4493235;31;33017;-76
2022/09/10 11:41:47;;;;;;;0.37;0.37;;;;;;;24.19;40.91;99194.13;4485947;31;34629;-76
2022/09/10 11:44:35;;;;;;;0.20;0.20;;;;;;;24.46;40.86;99191.16;4496606;31;33715;-77
2022/09/10 11:47:11;;;;;;;0.32;0.32;;;;;;;24.24;40.30;99187.50;4489444;31;34356;-76
2022/09/10 11:49:47;;;;;;;0.47;0.28;;;;;;;24.14;40.82;99181.25;4477646;32;33444;-75
2022/09/10 11:52:16;;;;;;;1.20;0.37;;;;;;;24.41;39.72;99188.84;4477389;32;32896;-76
2022/09/10 11:54:46;;;;;;;0.62;0.32;;;;;;;24.44;39.60;99182.44;4477436;32;33670;-76
2022/09/10 11:57:23;;;;;;;0.37;0.30;;;;;;;24.68;40.29;99182.34;4484936;31;33798;-76
2022/09/10 12:00:14;;;;;;;0.30;0.30;;;;;;;24.49;39.24;99181.16;4484051;31;33282;-78